Terminal Aerodrome Forecast
Issued by NWS Knoxville/Tri Cities, TN

Home | Current Version | Previous Version | Text Only | Print | Product List | Glossary On
Versions: 1 2 3 4 5 6 7 8 9 10 11 12 13 14 15 16 17 18 19
000
FTUS44 KMRX 310527
TAFCHA
TAF
KCHA 310527Z 3106/0106 25004KT P6SM SCT250
     FM311000 00000KT 6SM BR SCT005 BKN250
     FM311300 VRB03KT P6SM SCT030 BKN250
     FM312000 29006KT P6SM VCTS SCT050CB BKN250
     FM010100 VRB02KT P6SM BKN250=

USA.gov is the U.S. government's official web portal to all federal, state and local government web resources and services.